sensor_id;sensor_type;location;lat;lon;timestamp;temperature;humidity
52743;DHT22;55583;53.012;6.556;2022-07-22T00:01:05;15.60;99.90
52743;DHT22;55583;53.012;6.556;2022-07-22T00:03:31;15.60;99.90
52743;DHT22;55583;53.012;6.556;2022-07-22T00:05:56;15.60;99.90
52743;DHT22;55583;53.012;6.556;2022-07-22T00:08:22;15.60;99.90
52743;DHT22;55583;53.012;6.556;2022-07-22T00:10:48;15.60;99.90
52743;DHT22;55583;53.012;6.556;2022-07-22T00:13:13;15.60;99.90
52743;DHT22;55583;53.012;6.556;2022-07-22T00:15:39;15.60;99.90
52743;DHT22;55583;53.012;6.556;2022-07-22T00:18:05;15.70;99.90
52743;DHT22;55583;53.012;6.556;2022-07-22T00:20:30;15.60;99.90
52743;DHT22;55583;53.012;6.556;2022-07-22T00:22:56;15.70;99.90
52743;DHT22;55583;53.012;6.556;2022-07-22T00:25:22;15.60;99.90
52743;DHT22;55583;53.012;6.556;2022-07-22T00:27:47;15.60;99.90
52743;DHT22;55583;53.012;6.556;2022-07-22T00:30:13;15.80;99.90
52743;DHT22;55583;53.012;6.556;2022-07-22T00:32:38;15.60;99.90
52743;DHT22;55583;53.012;6.556;2022-07-22T00:35:04;15.60;99.90
52743;DHT22;55583;53.012;6.556;2022-07-22T00:37:30;15.60;99.90
52743;DHT22;55583;53.012;6.556;2022-07-22T00:39:56;15.60;99.90
52743;DHT22;55583;53.012;6.556;2022-07-22T00:42:22;15.60;99.90
52743;DHT22;55583;53.012;6.556;2022-07-22T00:44:47;15.60;99.90
52743;DHT22;55583;53.012;6.556;2022-07-22T00:47:13;15.60;99.90
52743;DHT22;55583;53.012;6.556;2022-07-22T00:49:39;15.50;99.90
52743;DHT22;55583;53.012;6.556;2022-07-22T00:52:05;15.50;99.90
52743;DHT22;55583;53.012;6.556;2022-07-22T00:54:32;15.50;99.90
52743;DHT22;55583;53.012;6.556;2022-07-22T00:56:58;15.50;99.90
52743;DHT22;55583;53.012;6.556;2022-07-22T00:59:23;15.80;99.90
52743;DHT22;55583;53.012;6.556;2022-07-22T01:01:49;15.50;99.90
52743;DHT22;55583;53.012;6.556;2022-07-22T01:04:16;15.50;99.90
52743;DHT22;55583;53.012;6.556;2022-07-22T01:06:42;15.50;99.90
52743;DHT22;55583;53.012;6.556;2022-07-22T01:09:12;15.50;99.90
52743;DHT22;55583;53.012;6.556;2022-07-22T01:11:38;15.50;99.90
52743;DHT22;55583;53.012;6.556;2022-07-22T01:14:04;15.40;99.90
52743;DHT22;55583;53.012;6.556;2022-07-22T01:16:29;15.40;99.90
52743;DHT22;55583;53.012;6.556;2022-07-22T01:18:55;15.40;99.90
52743;DHT22;55583;53.012;6.556;2022-07-22T01:21:21;15.40;99.90
52743;DHT22;55583;53.012;6.556;2022-07-22T01:23:47;15.40;99.90
52743;DHT22;55583;53.012;6.556;2022-07-22T01:26:13;15.40;99.90
52743;DHT22;55583;53.012;6.556;2022-07-22T01:28:39;15.40;99.90
52743;DHT22;55583;53.012;6.556;2022-07-22T01:31:05;15.40;99.90
52743;DHT22;55583;53.012;6.556;2022-07-22T01:33:32;15.40;99.90
52743;DHT22;55583;53.012;6.556;2022-07-22T01:35:57;15.40;99.90
52743;DHT22;55583;53.012;6.556;2022-07-22T01:38:23;15.30;99.90
52743;DHT22;55583;53.012;6.556;2022-07-22T01:40:49;15.40;99.90
52743;DHT22;55583;53.012;6.556;2022-07-22T01:43:15;15.40;99.90
52743;DHT22;55583;53.012;6.556;2022-07-22T01:45:44;15.40;99.90
52743;DHT22;55583;53.012;6.556;2022-07-22T01:48:10;15.40;99.90
52743;DHT22;55583;53.012;6.556;2022-07-22T01:50:36;15.40;99.90
52743;DHT22;55583;53.012;6.556;2022-07-22T01:53:02;15.40;99.90
52743;DHT22;55583;53.012;6.556;2022-07-22T01:55:27;15.30;99.90
52743;DHT22;55583;53.012;6.556;2022-07-22T01:57:53;15.40;99.90
52743;DHT22;55583;53.012;6.556;2022-07-22T02:00:19;15.40;99.90
52743;DHT22;55583;53.012;6.556;2022-07-22T02:02:45;15.30;99.90
52743;DHT22;55583;53.012;6.556;2022-07-22T02:05:11;15.40;99.90
52743;DHT22;55583;53.012;6.556;2022-07-22T02:07:36;16.20;99.90
52743;DHT22;55583;53.012;6.556;2022-07-22T02:10:04;15.30;99.90
52743;DHT22;55583;53.012;6.556;2022-07-22T02:12:29;15.30;99.90
52743;DHT22;55583;53.012;6.556;2022-07-22T02:14:55;15.30;99.90
52743;DHT22;55583;53.012;6.556;2022-07-22T02:17:21;15.30;99.90
52743;DHT22;55583;53.012;6.556;2022-07-22T02:19:46;15.30;99.90
52743;DHT22;55583;53.012;6.556;2022-07-22T02:22:12;15.30;99.90
52743;DHT22;55583;53.012;6.556;2022-07-22T02:24:37;15.30;99.90
52743;DHT22;55583;53.012;6.556;2022-07-22T02:27:03;15.30;99.90
52743;DHT22;55583;53.012;6.556;2022-07-22T02:29:29;15.20;99.90
52743;DHT22;55583;53.012;6.556;2022-07-22T02:31:55;15.30;99.90
52743;DHT22;55583;53.012;6.556;2022-07-22T02:34:21;15.30;99.90
52743;DHT22;55583;53.012;6.556;2022-07-22T02:36:46;15.30;99.90
52743;DHT22;55583;53.012;6.556;2022-07-22T02:39:12;15.30;99.90
52743;DHT22;55583;53.012;6.556;2022-07-22T02:41:38;15.20;99.90
52743;DHT22;55583;53.012;6.556;2022-07-22T02:44:04;15.20;99.90
52743;DHT22;55583;53.012;6.556;2022-07-22T02:46:30;15.20;99.90
52743;DHT22;55583;53.012;6.556;2022-07-22T02:48:56;15.20;99.90
52743;DHT22;55583;53.012;6.556;2022-07-22T02:51:22;15.20;99.90
52743;DHT22;55583;53.012;6.556;2022-07-22T02:53:48;15.20;99.90
52743;DHT22;55583;53.012;6.556;2022-07-22T02:56:14;15.20;99.90
52743;DHT22;55583;53.012;6.556;2022-07-22T02:58:40;15.20;99.90
52743;DHT22;55583;53.012;6.556;2022-07-22T03:01:06;15.20;99.90
52743;DHT22;55583;53.012;6.556;2022-07-22T03:03:32;15.20;99.90
52743;DHT22;55583;53.012;6.556;2022-07-22T03:05:58;15.20;99.90
52743;DHT22;55583;53.012;6.556;2022-07-22T03:08:24;15.10;99.90
52743;DHT22;55583;53.012;6.556;2022-07-22T03:10:51;15.10;99.90
52743;DHT22;55583;53.012;6.556;2022-07-22T03:13:16;15.10;99.90
52743;DHT22;55583;53.012;6.556;2022-07-22T03:15:42;15.10;99.90
52743;DHT22;55583;53.012;6.556;2022-07-22T03:18:08;15.10;99.90
52743;DHT22;55583;53.012;6.556;2022-07-22T03:20:34;15.10;99.90
52743;DHT22;55583;53.012;6.556;2022-07-22T03:22:59;15.10;99.90
52743;DHT22;55583;53.012;6.556;2022-07-22T03:25:25;15.10;99.90
52743;DHT22;55583;53.012;6.556;2022-07-22T03:27:51;15.10;99.90
52743;DHT22;55583;53.012;6.556;2022-07-22T03:30:17;15.10;99.90
52743;DHT22;55583;53.012;6.556;2022-07-22T03:32:42;15.00;99.90
52743;DHT22;55583;53.012;6.556;2022-07-22T03:35:11;15.10;99.90
52743;DHT22;55583;53.012;6.556;2022-07-22T03:37:37;15.00;99.90
52743;DHT22;55583;53.012;6.556;2022-07-22T03:40:03;15.00;99.90
52743;DHT22;55583;53.012;6.556;2022-07-22T03:42:28;15.00;99.90
52743;DHT22;55583;53.012;6.556;2022-07-22T03:44:54;15.00;99.90
52743;DHT22;55583;53.012;6.556;2022-07-22T03:47:20;15.00;99.90
52743;DHT22;55583;53.012;6.556;2022-07-22T03:49:46;14.90;99.90
52743;DHT22;55583;53.012;6.556;2022-07-22T03:52:12;15.00;99.90
52743;DHT22;55583;53.012;6.556;2022-07-22T03:54:38;15.00;99.90
52743;DHT22;55583;53.012;6.556;2022-07-22T03:57:04;15.00;99.90
52743;DHT22;55583;53.012;6.556;2022-07-22T03:59:30;14.90;99.90
52743;DHT22;55583;53.012;6.556;2022-07-22T04:01:55;15.00;99.90
52743;DHT22;55583;53.012;6.556;2022-07-22T04:04:21;15.00;99.90
52743;DHT22;55583;53.012;6.556;2022-07-22T04:06:47;15.00;99.90
52743;DHT22;55583;53.012;6.556;2022-07-22T04:09:12;15.60;99.90
52743;DHT22;55583;53.012;6.556;2022-07-22T04:11:38;15.00;99.90
52743;DHT22;55583;53.012;6.556;2022-07-22T04:14:04;15.00;99.90
52743;DHT22;55583;53.012;6.556;2022-07-22T04:16:29;15.00;99.90
52743;DHT22;55583;53.012;6.556;2022-07-22T04:18:55;15.90;99.90
52743;DHT22;55583;53.012;6.556;2022-07-22T04:21:21;15.00;99.90
52743;DHT22;55583;53.012;6.556;2022-07-22T04:23:46;15.00;99.90
52743;DHT22;55583;53.012;6.556;2022-07-22T04:26:12;15.00;99.90
52743;DHT22;55583;53.012;6.556;2022-07-22T04:28:37;15.00;99.90
52743;DHT22;55583;53.012;6.556;2022-07-22T04:31:03;15.00;99.90
52743;DHT22;55583;53.012;6.556;2022-07-22T04:33:29;15.00;99.90
52743;DHT22;55583;53.012;6.556;2022-07-22T04:35:55;15.00;99.90
52743;DHT22;55583;53.012;6.556;2022-07-22T04:38:20;15.10;99.90
52743;DHT22;55583;53.012;6.556;2022-07-22T04:40:46;15.10;99.90
52743;DHT22;55583;53.012;6.556;2022-07-22T04:43:12;15.10;99.90
52743;DHT22;55583;53.012;6.556;2022-07-22T04:45:37;15.10;99.90
52743;DHT22;55583;53.012;6.556;2022-07-22T04:48:03;15.10;99.90
52743;DHT22;55583;53.012;6.556;2022-07-22T04:50:29;15.10;99.90
52743;DHT22;55583;53.012;6.556;2022-07-22T04:52:54;15.10;99.90
52743;DHT22;55583;53.012;6.556;2022-07-22T04:55:20;15.20;99.90
52743;DHT22;55583;53.012;6.556;2022-07-22T04:57:46;15.20;99.90
52743;DHT22;55583;53.012;6.556;2022-07-22T05:00:12;15.20;99.90
52743;DHT22;55583;53.012;6.556;2022-07-22T05:02:38;15.20;99.90
52743;DHT22;55583;53.012;6.556;2022-07-22T05:05:03;15.30;99.90
52743;DHT22;55583;53.012;6.556;2022-07-22T05:07:29;15.30;99.90
52743;DHT22;55583;53.012;6.556;2022-07-22T05:09:55;15.30;99.90
52743;DHT22;55583;53.012;6.556;2022-07-22T05:12:20;15.40;99.90
52743;DHT22;55583;53.012;6.556;2022-07-22T05:14:46;15.40;99.90
52743;DHT22;55583;53.012;6.556;2022-07-22T05:17:12;15.40;99.90
52743;DHT22;55583;53.012;6.556;2022-07-22T05:19:38;15.50;99.90
52743;DHT22;55583;53.012;6.556;2022-07-22T05:22:08;15.50;99.90
52743;DHT22;55583;53.012;6.556;2022-07-22T05:24:34;15.50;99.90
52743;DHT22;55583;53.012;6.556;2022-07-22T05:27:00;15.50;99.90
52743;DHT22;55583;53.012;6.556;2022-07-22T05:29:26;15.50;99.90
52743;DHT22;55583;53.012;6.556;2022-07-22T05:31:51;15.60;99.90
52743;DHT22;55583;53.012;6.556;2022-07-22T05:34:17;15.70;99.90
52743;DHT22;55583;53.012;6.556;2022-07-22T05:36:43;15.70;99.90
52743;DHT22;55583;53.012;6.556;2022-07-22T05:39:08;15.70;99.90
52743;DHT22;55583;53.012;6.556;2022-07-22T05:41:34;15.80;99.90
52743;DHT22;55583;53.012;6.556;2022-07-22T05:43:59;15.90;99.90
52743;DHT22;55583;53.012;6.556;2022-07-22T05:46:25;15.90;99.90
52743;DHT22;55583;53.012;6.556;2022-07-22T05:48:50;15.90;99.90
52743;DHT22;55583;53.012;6.556;2022-07-22T05:51:16;15.90;99.90
52743;DHT22;55583;53.012;6.556;2022-07-22T05:53:42;15.90;99.90
52743;DHT22;55583;53.012;6.556;2022-07-22T05:56:09;15.90;99.90
52743;DHT22;55583;53.012;6.556;2022-07-22T05:58:37;16.00;99.90
52743;DHT22;55583;53.012;6.556;2022-07-22T06:01:03;15.90;99.90
52743;DHT22;55583;53.012;6.556;2022-07-22T06:03:29;15.90;99.90
52743;DHT22;55583;53.012;6.556;2022-07-22T06:05:54;16.00;99.90
52743;DHT22;55583;53.012;6.556;2022-07-22T06:08:20;16.00;99.90
52743;DHT22;55583;53.012;6.556;2022-07-22T06:10:46;16.10;99.90
52743;DHT22;55583;53.012;6.556;2022-07-22T06:13:11;16.10;99.90
52743;DHT22;55583;53.012;6.556;2022-07-22T06:15:37;16.10;99.90
52743;DHT22;55583;53.012;6.556;2022-07-22T06:18:02;16.20;99.90
52743;DHT22;55583;53.012;6.556;2022-07-22T06:20:28;16.20;99.90
52743;DHT22;55583;53.012;6.556;2022-07-22T06:22:54;16.30;99.90
52743;DHT22;55583;53.012;6.556;2022-07-22T06:25:20;16.40;99.90
52743;DHT22;55583;53.012;6.556;2022-07-22T06:27:46;16.40;99.90
52743;DHT22;55583;53.012;6.556;2022-07-22T06:30:12;16.40;99.90
52743;DHT22;55583;53.012;6.556;2022-07-22T06:32:37;16.50;99.90
52743;DHT22;55583;53.012;6.556;2022-07-22T06:35:03;16.50;99.90
52743;DHT22;55583;53.012;6.556;2022-07-22T06:37:29;16.60;99.90
52743;DHT22;55583;53.012;6.556;2022-07-22T06:39:55;16.60;99.90
52743;DHT22;55583;53.012;6.556;2022-07-22T06:42:20;16.70;99.90
52743;DHT22;55583;53.012;6.556;2022-07-22T06:44:48;16.70;99.90
52743;DHT22;55583;53.012;6.556;2022-07-22T06:47:13;16.80;99.90
52743;DHT22;55583;53.012;6.556;2022-07-22T06:49:39;16.80;99.90
52743;DHT22;55583;53.012;6.556;2022-07-22T06:52:05;16.90;99.90
52743;DHT22;55583;53.012;6.556;2022-07-22T06:54:30;17.00;99.90
52743;DHT22;55583;53.012;6.556;2022-07-22T06:56:56;17.10;99.90
52743;DHT22;55583;53.012;6.556;2022-07-22T06:59:23;17.10;99.90
52743;DHT22;55583;53.012;6.556;2022-07-22T07:01:49;17.20;99.90
52743;DHT22;55583;53.012;6.556;2022-07-22T07:04:15;17.40;99.90
52743;DHT22;55583;53.012;6.556;2022-07-22T07:06:43;17.30;99.90
52743;DHT22;55583;53.012;6.556;2022-07-22T07:09:09;17.40;99.90
52743;DHT22;55583;53.012;6.556;2022-07-22T07:11:34;17.50;99.90
52743;DHT22;55583;53.012;6.556;2022-07-22T07:14:00;17.50;99.90
52743;DHT22;55583;53.012;6.556;2022-07-22T07:16:26;17.60;99.90
52743;DHT22;55583;53.012;6.556;2022-07-22T07:18:51;17.70;99.90
52743;DHT22;55583;53.012;6.556;2022-07-22T07:21:17;17.70;99.90
52743;DHT22;55583;53.012;6.556;2022-07-22T07:23:43;17.80;99.90
52743;DHT22;55583;53.012;6.556;2022-07-22T07:26:08;17.80;99.90
52743;DHT22;55583;53.012;6.556;2022-07-22T07:28:34;17.90;99.90
52743;DHT22;55583;53.012;6.556;2022-07-22T07:31:00;17.90;99.90
52743;DHT22;55583;53.012;6.556;2022-07-22T07:33:25;17.90;99.90
52743;DHT22;55583;53.012;6.556;2022-07-22T07:35:51;17.90;99.90
52743;DHT22;55583;53.012;6.556;2022-07-22T07:38:17;18.00;99.90
52743;DHT22;55583;53.012;6.556;2022-07-22T07:40:42;17.90;99.90
52743;DHT22;55583;53.012;6.556;2022-07-22T07:43:08;18.00;99.90
52743;DHT22;55583;53.012;6.556;2022-07-22T07:45:34;18.00;99.90
52743;DHT22;55583;53.012;6.556;2022-07-22T07:48:00;18.10;99.90
52743;DHT22;55583;53.012;6.556;2022-07-22T07:50:26;18.20;99.90
52743;DHT22;55583;53.012;6.556;2022-07-22T07:52:51;18.20;99.90
52743;DHT22;55583;53.012;6.556;2022-07-22T07:55:19;18.30;99.90
52743;DHT22;55583;53.012;6.556;2022-07-22T07:57:45;18.10;99.90
52743;DHT22;55583;53.012;6.556;2022-07-22T08:00:15;18.10;99.90
52743;DHT22;55583;53.012;6.556;2022-07-22T08:02:40;18.20;99.90
52743;DHT22;55583;53.012;6.556;2022-07-22T08:05:07;18.10;99.90
52743;DHT22;55583;53.012;6.556;2022-07-22T08:07:33;18.20;99.90
52743;DHT22;55583;53.012;6.556;2022-07-22T08:09:58;18.20;99.90
52743;DHT22;55583;53.012;6.556;2022-07-22T08:12:24;18.30;99.90
52743;DHT22;55583;53.012;6.556;2022-07-22T08:14:50;18.30;99.90
52743;DHT22;55583;53.012;6.556;2022-07-22T08:17:15;18.20;99.90
52743;DHT22;55583;53.012;6.556;2022-07-22T08:19:41;18.30;99.90
52743;DHT22;55583;53.012;6.556;2022-07-22T08:22:06;18.40;99.90
52743;DHT22;55583;53.012;6.556;2022-07-22T08:24:32;18.60;99.90
52743;DHT22;55583;53.012;6.556;2022-07-22T08:26:58;18.70;99.90
52743;DHT22;55583;53.012;6.556;2022-07-22T08:29:23;18.70;99.90
52743;DHT22;55583;53.012;6.556;2022-07-22T08:31:49;18.80;99.90
52743;DHT22;55583;53.012;6.556;2022-07-22T08:34:14;18.90;99.90
52743;DHT22;55583;53.012;6.556;2022-07-22T08:36:40;18.90;99.90
52743;DHT22;55583;53.012;6.556;2022-07-22T08:39:06;18.80;99.90
52743;DHT22;55583;53.012;6.556;2022-07-22T08:41:35;18.80;99.90
52743;DHT22;55583;53.012;6.556;2022-07-22T08:44:05;18.80;99.90
52743;DHT22;55583;53.012;6.556;2022-07-22T08:46:31;18.80;99.90
52743;DHT22;55583;53.012;6.556;2022-07-22T08:48:56;18.80;99.90
52743;DHT22;55583;53.012;6.556;2022-07-22T08:51:24;18.70;99.90
52743;DHT22;55583;53.012;6.556;2022-07-22T08:53:49;18.60;99.90
52743;DHT22;55583;53.012;6.556;2022-07-22T08:56:15;18.50;99.90
52743;DHT22;55583;53.012;6.556;2022-07-22T08:58:41;18.50;99.90
52743;DHT22;55583;53.012;6.556;2022-07-22T09:01:12;18.50;99.90
52743;DHT22;55583;53.012;6.556;2022-07-22T09:04:04;18.50;99.90
52743;DHT22;55583;53.012;6.556;2022-07-22T09:06:29;18.40;99.90
52743;DHT22;55583;53.012;6.556;2022-07-22T09:09:04;18.30;99.90
52743;DHT22;55583;53.012;6.556;2022-07-22T09:11:30;18.30;99.90
52743;DHT22;55583;53.012;6.556;2022-07-22T09:13:58;18.20;99.90
52743;DHT22;55583;53.012;6.556;2022-07-22T09:16:45;18.20;99.90
52743;DHT22;55583;53.012;6.556;2022-07-22T09:19:12;18.30;99.90
52743;DHT22;55583;53.012;6.556;2022-07-22T09:21:43;18.30;99.90
52743;DHT22;55583;53.012;6.556;2022-07-22T09:24:34;18.20;99.90
52743;DHT22;55583;53.012;6.556;2022-07-22T09:27:01;18.20;99.90
52743;DHT22;55583;53.012;6.556;2022-07-22T09:29:26;18.30;99.90
52743;DHT22;55583;53.012;6.556;2022-07-22T09:31:53;18.30;99.90
52743;DHT22;55583;53.012;6.556;2022-07-22T09:34:29;18.20;99.90
52743;DHT22;55583;53.012;6.556;2022-07-22T09:36:58;18.10;99.90
52743;DHT22;55583;53.012;6.556;2022-07-22T09:39:29;18.00;99.90
52743;DHT22;55583;53.012;6.556;2022-07-22T09:41:59;17.90;99.90
52743;DHT22;55583;53.012;6.556;2022-07-22T09:44:26;17.90;99.90
52743;DHT22;55583;53.012;6.556;2022-07-22T09:46:51;17.80;99.90
52743;DHT22;55583;53.012;6.556;2022-07-22T09:49:31;17.70;99.90
52743;DHT22;55583;53.012;6.556;2022-07-22T09:51:57;17.60;99.90
52743;DHT22;55583;53.012;6.556;2022-07-22T09:54:23;17.60;99.90
52743;DHT22;55583;53.012;6.556;2022-07-22T09:56:48;17.70;99.90
52743;DHT22;55583;53.012;6.556;2022-07-22T09:59:14;17.60;99.90
52743;DHT22;55583;53.012;6.556;2022-07-22T10:01:40;17.70;99.90
52743;DHT22;55583;53.012;6.556;2022-07-22T10:04:07;17.80;99.90
52743;DHT22;55583;53.012;6.556;2022-07-22T10:06:37;17.90;99.90
52743;DHT22;55583;53.012;6.556;2022-07-22T10:09:03;18.00;99.90
52743;DHT22;55583;53.012;6.556;2022-07-22T10:11:30;18.00;99.90
52743;DHT22;55583;53.012;6.556;2022-07-22T10:13:56;18.10;99.90
52743;DHT22;55583;53.012;6.556;2022-07-22T10:16:21;18.30;99.90
52743;DHT22;55583;53.012;6.556;2022-07-22T10:18:47;18.30;99.90
52743;DHT22;55583;53.012;6.556;2022-07-22T10:21:13;18.40;99.90
52743;DHT22;55583;53.012;6.556;2022-07-22T10:24:14;18.40;99.90
52743;DHT22;55583;53.012;6.556;2022-07-22T10:26:57;18.50;99.90
52743;DHT22;55583;53.012;6.556;2022-07-22T10:34:43;18.90;99.90
52743;DHT22;55583;53.012;6.556;2022-07-22T10:45:26;19.20;99.90
52743;DHT22;55583;53.012;6.556;2022-07-22T10:47:57;19.40;99.90
52743;DHT22;55583;53.012;6.556;2022-07-22T10:53:08;19.60;99.90
52743;DHT22;55583;53.012;6.556;2022-07-22T10:55:35;19.80;99.90
52743;DHT22;55583;53.012;6.556;2022-07-22T11:01:05;20.00;99.90
52743;DHT22;55583;53.012;6.556;2022-07-22T11:03:33;20.10;99.90
52743;DHT22;55583;53.012;6.556;2022-07-22T11:08:51;20.50;99.90
52743;DHT22;55583;53.012;6.556;2022-07-22T11:11:18;20.70;99.90
52743;DHT22;55583;53.012;6.556;2022-07-22T11:13:44;20.90;99.90
52743;DHT22;55583;53.012;6.556;2022-07-22T11:16:15;21.00;99.90
52743;DHT22;55583;53.012;6.556;2022-07-22T11:18:52;21.10;99.90
52743;DHT22;55583;53.012;6.556;2022-07-22T11:21:21;21.10;99.90
52743;DHT22;55583;53.012;6.556;2022-07-22T11:23:49;21.10;99.90
52743;DHT22;55583;53.012;6.556;2022-07-22T11:26:16;21.10;99.90
52743;DHT22;55583;53.012;6.556;2022-07-22T11:28:43;21.10;99.90
52743;DHT22;55583;53.012;6.556;2022-07-22T11:31:13;21.00;99.90
52743;DHT22;55583;53.012;6.556;2022-07-22T11:33:39;20.80;99.90
52743;DHT22;55583;53.012;6.556;2022-07-22T11:36:06;20.60;99.90
52743;DHT22;55583;53.012;6.556;2022-07-22T11:38:46;20.50;99.90
52743;DHT22;55583;53.012;6.556;2022-07-22T11:41:14;20.50;99.90
52743;DHT22;55583;53.012;6.556;2022-07-22T11:43:48;20.40;99.90
52743;DHT22;55583;53.012;6.556;2022-07-22T11:46:15;20.50;99.90
52743;DHT22;55583;53.012;6.556;2022-07-22T11:48:42;20.40;99.90
52743;DHT22;55583;53.012;6.556;2022-07-22T11:51:10;20.30;99.90
52743;DHT22;55583;53.012;6.556;2022-07-22T11:53:40;20.30;99.90
52743;DHT22;55583;53.012;6.556;2022-07-22T11:56:08;20.20;99.90
52743;DHT22;55583;53.012;6.556;2022-07-22T11:58:43;20.10;99.30
52743;DHT22;55583;53.012;6.556;2022-07-22T12:01:14;20.10;97.60
52743;DHT22;55583;53.012;6.556;2022-07-22T12:03:45;20.20;99.30
52743;DHT22;55583;53.012;6.556;2022-07-22T12:06:13;20.30;98.30
52743;DHT22;55583;53.012;6.556;2022-07-22T12:08:42;20.20;96.70
52743;DHT22;55583;53.012;6.556;2022-07-22T12:11:09;20.20;96.00
52743;DHT22;55583;53.012;6.556;2022-07-22T12:13:34;20.30;95.50
52743;DHT22;55583;53.012;6.556;2022-07-22T12:16:16;20.40;94.90
52743;DHT22;55583;53.012;6.556;2022-07-22T12:18:42;20.50;93.10
52743;DHT22;55583;53.012;6.556;2022-07-22T12:21:08;20.50;93.40
52743;DHT22;55583;53.012;6.556;2022-07-22T12:23:34;20.60;92.40
52743;DHT22;55583;53.012;6.556;2022-07-22T12:26:00;20.60;90.80
52743;DHT22;55583;53.012;6.556;2022-07-22T12:28:27;20.60;89.30
52743;DHT22;55583;53.012;6.556;2022-07-22T12:30:55;20.60;90.70
52743;DHT22;55583;53.012;6.556;2022-07-22T12:33:22;20.70;90.20
52743;DHT22;55583;53.012;6.556;2022-07-22T12:36:05;20.70;86.80
52743;DHT22;55583;53.012;6.556;2022-07-22T12:38:32;20.90;84.60
52743;DHT22;55583;53.012;6.556;2022-07-22T12:41:21;21.00;84.60
52743;DHT22;55583;53.012;6.556;2022-07-22T12:43:49;21.10;82.90
52743;DHT22;55583;53.012;6.556;2022-07-22T12:46:14;21.20;83.90
52743;DHT22;55583;53.012;6.556;2022-07-22T12:48:52;21.40;83.20
52743;DHT22;55583;53.012;6.556;2022-07-22T12:51:18;21.40;78.50
52743;DHT22;55583;53.012;6.556;2022-07-22T12:53:43;21.30;81.20
52743;DHT22;55583;53.012;6.556;2022-07-22T12:56:09;21.20;80.80
52743;DHT22;55583;53.012;6.556;2022-07-22T12:58:37;21.10;80.70
52743;DHT22;55583;53.012;6.556;2022-07-22T13:01:06;21.00;82.50
52743;DHT22;55583;53.012;6.556;2022-07-22T13:03:32;20.80;84.50
52743;DHT22;55583;53.012;6.556;2022-07-22T13:06:00;20.70;86.30
52743;DHT22;55583;53.012;6.556;2022-07-22T13:08:27;20.70;86.90
52743;DHT22;55583;53.012;6.556;2022-07-22T13:10:53;20.70;88.30
52743;DHT22;55583;53.012;6.556;2022-07-22T13:13:20;20.60;87.90
52743;DHT22;55583;53.012;6.556;2022-07-22T13:15:46;20.60;88.20
52743;DHT22;55583;53.012;6.556;2022-07-22T13:18:12;20.60;89.30
52743;DHT22;55583;53.012;6.556;2022-07-22T13:20:38;20.50;88.20
52743;DHT22;55583;53.012;6.556;2022-07-22T13:23:04;20.60;89.50
52743;DHT22;55583;53.012;6.556;2022-07-22T13:25:30;20.60;88.30
52743;DHT22;55583;53.012;6.556;2022-07-22T13:27:56;20.50;86.50
52743;DHT22;55583;53.012;6.556;2022-07-22T13:30:22;20.40;87.30
52743;DHT22;55583;53.012;6.556;2022-07-22T13:32:47;20.40;87.50
52743;DHT22;55583;53.012;6.556;2022-07-22T13:35:13;20.60;87.00
52743;DHT22;55583;53.012;6.556;2022-07-22T13:37:39;20.70;86.40
52743;DHT22;55583;53.012;6.556;2022-07-22T13:40:05;20.80;86.00
52743;DHT22;55583;53.012;6.556;2022-07-22T13:42:31;21.00;85.40
52743;DHT22;55583;53.012;6.556;2022-07-22T13:44:56;21.10;83.50
52743;DHT22;55583;53.012;6.556;2022-07-22T13:47:22;21.10;81.70
52743;DHT22;55583;53.012;6.556;2022-07-22T13:49:48;21.20;82.60
52743;DHT22;55583;53.012;6.556;2022-07-22T13:52:14;21.30;82.60
52743;DHT22;55583;53.012;6.556;2022-07-22T13:54:41;21.30;81.10
52743;DHT22;55583;53.012;6.556;2022-07-22T13:57:07;21.30;79.20
52743;DHT22;55583;53.012;6.556;2022-07-22T13:59:33;21.20;80.20
52743;DHT22;55583;53.012;6.556;2022-07-22T14:01:59;21.20;81.50
52743;DHT22;55583;53.012;6.556;2022-07-22T14:04:25;21.30;81.10
52743;DHT22;55583;53.012;6.556;2022-07-22T14:06:51;21.30;79.90
52743;DHT22;55583;53.012;6.556;2022-07-22T14:09:16;21.20;78.40
52743;DHT22;55583;53.012;6.556;2022-07-22T14:11:42;21.10;79.50
52743;DHT22;55583;53.012;6.556;2022-07-22T14:14:08;21.10;79.80
52743;DHT22;55583;53.012;6.556;2022-07-22T14:16:35;21.00;79.40
52743;DHT22;55583;53.012;6.556;2022-07-22T14:19:02;20.90;80.10
52743;DHT22;55583;53.012;6.556;2022-07-22T14:21:28;20.90;78.70
52743;DHT22;55583;53.012;6.556;2022-07-22T14:23:54;20.90;78.90
52743;DHT22;55583;53.012;6.556;2022-07-22T14:26:19;21.00;77.90
52743;DHT22;55583;53.012;6.556;2022-07-22T14:28:45;21.00;77.50
52743;DHT22;55583;53.012;6.556;2022-07-22T14:31:10;21.20;77.00
52743;DHT22;55583;53.012;6.556;2022-07-22T14:33:36;21.30;76.70
52743;DHT22;55583;53.012;6.556;2022-07-22T14:36:02;21.50;75.50
52743;DHT22;55583;53.012;6.556;2022-07-22T14:38:27;21.60;75.30
52743;DHT22;55583;53.012;6.556;2022-07-22T14:40:53;21.80;75.90
52743;DHT22;55583;53.012;6.556;2022-07-22T14:43:18;21.90;75.80
52743;DHT22;55583;53.012;6.556;2022-07-22T14:45:44;22.00;75.60
52743;DHT22;55583;53.012;6.556;2022-07-22T14:48:10;22.10;75.10
52743;DHT22;55583;53.012;6.556;2022-07-22T14:50:36;22.10;74.30
52743;DHT22;55583;53.012;6.556;2022-07-22T14:53:01;22.10;74.30
52743;DHT22;55583;53.012;6.556;2022-07-22T14:55:27;22.00;73.90
52743;DHT22;55583;53.012;6.556;2022-07-22T14:57:53;21.90;74.70
52743;DHT22;55583;53.012;6.556;2022-07-22T15:00:19;21.70;75.30
52743;DHT22;55583;53.012;6.556;2022-07-22T15:02:45;21.50;76.50
52743;DHT22;55583;53.012;6.556;2022-07-22T15:05:11;21.30;77.30
52743;DHT22;55583;53.012;6.556;2022-07-22T15:07:36;21.10;78.20
52743;DHT22;55583;53.012;6.556;2022-07-22T15:10:02;20.90;78.60
52743;DHT22;55583;53.012;6.556;2022-07-22T15:12:28;20.80;79.60
52743;DHT22;55583;53.012;6.556;2022-07-22T15:14:53;20.80;80.60
52743;DHT22;55583;53.012;6.556;2022-07-22T15:17:19;20.60;81.10
52743;DHT22;55583;53.012;6.556;2022-07-22T15:19:45;20.60;81.40
52743;DHT22;55583;53.012;6.556;2022-07-22T15:22:10;20.50;81.80
52743;DHT22;55583;53.012;6.556;2022-07-22T15:24:36;20.50;82.10
52743;DHT22;55583;53.012;6.556;2022-07-22T15:27:01;20.40;82.60
52743;DHT22;55583;53.012;6.556;2022-07-22T15:29:27;20.30;83.90
52743;DHT22;55583;53.012;6.556;2022-07-22T15:31:53;20.30;84.60
52743;DHT22;55583;53.012;6.556;2022-07-22T15:34:18;20.20;84.40
52743;DHT22;55583;53.012;6.556;2022-07-22T15:36:44;20.10;84.50
52743;DHT22;55583;53.012;6.556;2022-07-22T15:39:10;20.10;86.20
52743;DHT22;55583;53.012;6.556;2022-07-22T15:41:36;20.10;86.40
52743;DHT22;55583;53.012;6.556;2022-07-22T15:44:06;20.30;87.70
52743;DHT22;55583;53.012;6.556;2022-07-22T15:46:32;20.20;88.00
52743;DHT22;55583;53.012;6.556;2022-07-22T15:48:58;20.10;88.40